MyTimes logo

TIMES

Webb Imagery

20/02/1999
Channel Challenge
550m Swim / 2.0km Run

(Click on competitor name to view personalised results)

Name
Race #
Category
Time
(h:mm:ss)
Avg Speed
km/hr
OAll
Place
Cat
Place
QUIRK Bryce#3Senior Male0:11:184:26:00 1 1
VAN WISSE John#2Senior Male0:11:254:29:00 2 2
BENTLEY Tim#1Senior Male0:11:264:29:00 3 3
RIX Joshua#113Senior Male0:11:434:36:00 4 4
HUME Sam#195Senior Male0:11:504:38:00 5 5
CLAYTON Marc#205Senior Male0:12:054:44:00 6 6
RISELEY Peter#428Junior Male0:12:254:52:00 7 1
SPIERINGS Martin#39Senior Male0:12:314:55:00 8 7
MACKEY Nick#29Senior Male0:12:344:56:00 9 8
HARRISS Justin#112Senior Male0:12:374:57:00 10 9
ARMSTRONG Graeme#333Over 40 Male0:12:384:57:00 11 1
STEEL Andrew#9Senior Male0:12:475:01:00 12 10
O'CONNELL Penny#351Senior Female0:12:485:01:00 13 1
HOLLINS Peter#178Senior Male0:12:535:03:00 14 11
RAMSAY Peter#469Junior Male0:12:585:05:00 15 2
MILLER Jason#189Senior Male0:13:075:09:00 16 12
SHAW Stuart#203Senior Male0:13:145:11:00 17 13
HEWSON Stephen#10Senior Male0:13:265:16:00 18 14
BROEREN Michael#109Senior Male0:13:275:16:00 19 15
LENNE Heath#440Junior Male0:13:285:17:00 20 3
PEARSON Mick#76Senior Male0:13:335:19:00 21 16
GORDON Michael#354Over 40 Male0:13:385:21:00 22 2
BRADFORD Peter#61Senior Male0:13:395:21:00 23 17
REID Jason#52Senior Male0:13:455:24:00 24 18
YUSKO William#343Over 40 Male0:14:005:29:00 25 3
EVANS Brad#46Senior Male0:14:015:30:00 26 19
FLEISNER Rob#48Senior Male0:14:055:31:00 27 20
JENE Nick#401Junior Male0:14:095:33:00 28 4
O'CONNELL Sarah#353Junior Female0:14:115:34:00 29 1
M Chuckie#201Senior Male0:14:185:36:00 30 21
BAILEY Benjamin#175Senior Male0:14:195:37:00 31 22
DALLINGER Chris#63Senior Male0:14:215:38:00 32 23
DESSENT Michael#161Senior Male0:14:215:38:00 33 24
CORBETT Jim#71Senior Male0:14:235:38:00 34 25
RICE Timothy#193Senior Male0:14:245:39:00 35 26
FETTERPLACE Kate#403Junior Female0:14:245:39:00 36 2
BLYTHE Kathy#366Junior Female0:14:255:39:00 37 3
RUDDICK Tony#187Senior Male0:14:265:40:00 38 27
BALLARD Jon#173Senior Male0:14:295:41:00 39 28
MC DONOUGH Grant#111Senior Male0:14:305:41:00 40 29
ROWLINGSON Ken#214Senior Male0:14:325:42:00 41 30
MOUNSEY Mark#34Senior Male0:14:325:42:00 42 31
FULLER Thomas#98Senior Male0:14:345:43:00 43 32
ASHLEY David#169Senior Male0:14:345:43:00 44 33
STEVENSON Darren#100Senior Male0:14:365:44:00 45 34
GARRET Geoff#136Senior Male0:14:375:44:00 46 35
BREACH Paul#222Senior Male0:14:375:44:00 47 36
NEWTON Rodney#22Senior Male0:14:385:44:00 48 37
YUSKO Daniel#342Junior Male0:14:465:47:00 49 5
PAPROTH Dale#191Senior Male0:14:475:48:00 50 38
BAILEY Peter#218Senior Male0:14:485:48:00 51 39
HOGHTON Daniel#332Junior Male0:14:505:49:00 52 6
KELSALL Adam#156Senior Male0:14:525:50:00 53 40
HARRIS Scott#102Senior Male0:14:535:50:00 54 41
TEMPLAR Anthony#105Senior Male0:14:545:51:00 55 42
ROYALS Wayne#49Senior Male0:14:585:52:00 56 43
DARRY Adrian#183Senior Male0:15:005:53:00 57 44
PANEBIANCO Leigh#334Junior Male0:15:045:55:00 58 7
JUDD Gary#435Over 40 Male0:15:045:55:00 59 4
CALLINAN Brad#158Senior Male0:15:085:56:00 60 45
NORTON Amanda#383Senior Female0:15:095:56:00 61 2
RAMPLING Darren#223Senior Male0:15:115:57:00 62 46
NICHOLSON Steven#480Junior Male0:15:125:58:00 63 8
BRUCE Stephen#17Senior Male0:15:135:58:00 64 47
MARTIN Paul#186Senior Male0:15:135:58:00 65 48
BAXTER Clinton#225Senior Male0:15:145:58:00 66 49
GROSS Mark#144Senior Male0:15:165:59:00 67 50
BECKMAN Steven#220Senior Male0:15:176:00:00 68 51
HEWETT Noel#57Senior Male0:15:196:00:00 69 52
SPOTTISWOOD James#508Junior Male0:15:226:02:00 70 9
HEDRICK Tayson#168Senior Male0:15:236:02:00 71 53
TRUSCOTT Brett#426Junior Male0:15:246:02:00 72 10
GAREL Michael#209Senior Male0:15:256:03:00 73 54
NAKANO Atshushi#69Senior Male0:15:316:05:00 74 55
CHISHOLM Andy#23Senior Male0:15:326:05:00 75 56
SYMONS George#489Over 40 Male0:15:326:05:00 76 5
STERLAND Chantelle#531Senior Female0:15:326:05:00 77 3
PITTS Graeme#36Senior Male0:15:336:06:00 78 57
COULSON Rob#490Over 40 Male0:15:346:06:00 79 6
MARSHALL Luke#62Senior Male0:15:356:07:00 80 58
DALLINGER Andrew#446Junior Male0:15:356:07:00 81 11
RYE Christophe#185Senior Male0:15:396:08:00 82 59
LOWE Darren#82Senior Male0:15:406:09:00 83 60
CURTIS Brad#86Senior Male0:15:416:09:00 84 61
WATKINS Robert#118Senior Male0:15:426:09:00 85 62
VALENA Rex#409Over 40 Male0:15:426:09:00 86 7
SCURRAH Tyson#184Senior Male0:15:436:10:00 87 63
SWABY Benjamin#374Junior Male0:15:436:10:00 88 12
FORD Penny#499Junior Female0:15:436:10:00 89 4
FETTERPLACE Jessica#404Junior Female0:15:436:10:00 90 5
ENTICOTT Iain#147Senior Male0:15:446:10:00 91 64
JENE Ollie#400Junior Male0:15:446:10:00 92 13
HIGGINS Andrew#215Senior Male0:15:456:11:00 93 65
GILLIGAN Jason#224Senior Male0:15:486:12:00 94 66
THWAITI Karl#226Senior Male0:15:496:12:00 95 67
OLIVER Scott#40Senior Male0:15:496:12:00 96 68
BARNES John#355Over 40 Male0:15:496:12:00 97 8
JENE Charlie#399Junior Male0:15:506:13:00 98 14
ANDERSON Peter#21Senior Male0:15:516:13:00 99 69
KENT Ryan#345Junior Male0:15:536:14:00 100 15
JOYCE Adam#485Junior Male0:15:546:14:00 101 16
SUNDERLAND Andrew#464Junior Male0:15:546:14:00 102 17
ROHAN Stephen#149Senior Male0:15:576:15:00 103 70
WILLIAMS Kellie#473Senior Female0:15:576:15:00 104 4
STAPLETON Travis#90Senior Male0:15:586:16:00 105 71
WILLMORE Sean#196Senior Male0:15:586:16:00 106 72
CROFT Gregory#104Senior Male0:16:036:18:00 107 73
DAFF Geoff#415Over 40 Male0:16:036:18:00 108 9
BAXTER Gavin#73Senior Male0:16:046:18:00 109 74
MIHELCIC Lauren#430Junior Female0:16:046:18:00 110 6
HEATH Brad#67Senior Male0:16:056:18:00 111 75
DALLINGER Brian#350Over 40 Male0:16:056:18:00 112 10
HACKETT John#212Senior Male0:16:076:19:00 113 76
CLOSE Jason#188Senior Male0:16:086:20:00 114 77
CAMPBELL Gary#165Senior Male0:16:096:20:00 115 78
LACCO Alan#28Senior Male0:16:106:20:00 116 79
STEVIC Michael#317Over 40 Male0:16:136:22:00 117 11
CARTER Dean#330Over 40 Male0:16:136:22:00 118 12
RODGERS Andrew#24Senior Male0:16:156:22:00 119 80
PETERSON Greg#219Senior Male0:16:166:23:00 120 81
RAMSAY Michael#470Junior Male0:16:176:23:00 121 18
TREVENA Martin#101Senior Male0:16:216:25:00 122 82
TRUSCOTT Colin#427Junior Male0:16:216:25:00 123 19
CAMPBELL Paul#177Senior Male0:16:226:25:00 124 83
BRADY Mark#371Over 40 Male0:16:226:25:00 125 13
GIBSON Glen#153Senior Male0:16:236:25:00 126 84
TAYLOR David#75Senior Male0:16:246:26:00 127 85
ENTWISLE Gerry#379Over 40 Male0:16:246:26:00 128 14
ROLLAND Thierry#51Senior Male0:16:256:26:00 129 86
PRYOR Brendan#208Senior Male0:16:266:27:00 130 87
MCDONAGH Andrew#143Senior Male0:16:266:27:00 131 88
FORD Warwick#194Senior Male0:16:266:27:00 132 89
HANCOCK Mark#35Senior Male0:16:276:27:00 133 90
FRANCIS Geoffrey#160Senior Male0:16:276:27:00 134 91
WATTS Jason#210Senior Male0:16:316:29:00 135 92
ABRAHAMSON Gareth#68Senior Male0:16:316:29:00 136 93
AVAGE Kelly#307Senior Female0:16:316:29:00 137 5
SHAW Roger#176Senior Male0:16:326:29:00 138 94
HAMMOND Henry#318Over 40 Male0:16:326:29:00 139 15
COX Stuart#128Senior Male0:16:336:29:00 140 95
PRETTY Klete#438Junior Male0:16:336:29:00 141 20
HAYES Albert#106Senior Male0:16:346:30:00 142 96
OWENS Carolyn#513Senior Female0:16:356:30:00 143 6
MCHENRY Simon#509Junior Male0:16:366:31:00 144 21
BARDWELL Lachlan#44Senior Male0:16:376:31:00 145 97
INNES Chris#93Senior Male0:16:376:31:00 146 98
SCHRAPE Andy#425Over 40 Male0:16:376:31:00 147 16
BARRY-MACAULEY David#408Junior Male0:16:376:31:00 148 22
KOLINA Craig#192Senior Male0:16:386:31:00 149 99
WATERHAM Hayden#88Senior Male0:16:396:32:00 150 100
KISS Ryan#167Senior Male0:16:396:32:00 151 101
CAMPBELL Daniel#468Junior Male0:16:396:32:00 152 23
SOBCZYK Matthew#148Senior Male0:16:406:32:00 153 102
GERKENS Chris#108Senior Male0:16:406:32:00 154 103
SMITH Jennifer#324Junior Female0:16:416:33:00 155 7
LEWINSON Dean#78Senior Male0:16:436:33:00 156 104
HUGHES Darren#182Senior Male0:16:456:34:00 157 105
SHEPPARD Sam#199Senior Male0:16:456:34:00 158 106
STINEAR David#217Senior Male0:16:456:34:00 159 107
HORACEK Francis#99Senior Male0:16:466:35:00 160 108
GILBEE Chris#139Senior Male0:16:486:35:00 161 109
TAYLOR Graham#37Senior Male0:16:486:35:00 162 110
VELLIN Marc#114Senior Male0:16:496:36:00 163 111
SUNDERLAND Peter#340Over 40 Male0:16:496:36:00 164 17
GORSUCH Scott#134Senior Male0:16:506:36:00 165 112
BAXTER Craig#227Senior Male0:16:516:36:00 166 113
LOVE John#180Senior Male0:16:526:37:00 167 114
DAFF Jessica#413Junior Female0:16:526:37:00 168 8
MURPHY Nicholas#140Senior Male0:16:536:37:00 169 115
CHISHOLM Mark#83Senior Male0:16:556:38:00 170 116
NEYLON Matthew#151Senior Male0:16:556:38:00 171 117
FISHER Kevin#120Senior Male0:16:576:39:00 172 118
VANDEHOEF Colin#204Senior Male0:16:576:39:00 173 119
NICHOLSON Peter#528Over 40 Male0:16:576:39:00 174 18
FAIRTHORNE Mark#135Senior Male0:17:006:40:00 175 120
MAYNARD Peter#431Over 40 Male0:17:006:40:00 176 19
STINEAR Timothy#25Senior Male0:17:016:40:00 177 121
KIRKWOOD Roger#206Senior Male0:17:026:41:00 178 122
JOHNSON Glen#198Senior Male0:17:026:41:00 179 123
SCULLY Chris#221Senior Male0:17:026:41:00 180 124
DAVIE Angela#323Senior Female0:17:046:42:00 181 7
TROJAN Lara#325Junior Female0:17:056:42:00 182 9
CREAN Angela#310Senior Female0:17:066:42:00 183 8
EVERETT Glen#116Senior Male0:17:076:43:00 184 125
PLANT Mark#137Senior Male0:17:076:43:00 185 126
REYNOLDS Simone#511Senior Female0:17:086:43:00 186 9
EVANS Randall#41Senior Male0:17:096:44:00 187 127
SCHMIDT Ben#130Senior Male0:17:096:44:00 188 128
GARDINER Braden#97Senior Male0:17:106:44:00 189 129
RANDLES Paul#170Senior Male0:17:116:44:00 190 130
NAK Rodney#38Senior Male0:17:136:45:00 191 131
OGILVY Catherine#451Senior Female0:17:136:45:00 192 10
ANDERSON Garry#349Over 40 Male0:17:156:46:00 193 20
SMITH Desmond#314Over 40 Male0:17:166:46:00 194 21
COLBY Ross#337Over 40 Male0:17:166:46:00 195 22
KEADY Richard#322Over 40 Male0:17:166:46:00 196 23
O'SHEA Justin#96Senior Male0:17:176:47:00 197 132
LEVEY Dean#216Senior Male0:17:176:47:00 198 133
COX Bill#150Senior Male0:17:196:47:00 199 134
ROBINSON Peter#15Senior Male0:17:196:47:00 200 135
GAMBLE Scott#87Senior Male0:17:196:47:00 201 136
CALDWELL Jenny#412Over 40 Female0:17:196:47:00 202 1
WALKER Alicia#462Senior Female0:17:216:48:00 203 11
DICKSON Ronald#45Senior Male0:17:226:49:00 204 137
RICHARDS Bradley#84Senior Male0:17:236:49:00 205 138
MOHACSY Andrew#145Senior Male0:17:236:49:00 206 139
PRYOR Darren#11Senior Male0:17:246:49:00 207 140
NOBILE Carmelo#312Senior Male0:17:256:50:00 208 141
BROERSEN Leonard#152Senior Male0:17:266:50:00 209 142
WILSON Sam#486Junior Male0:17:266:50:00 210 24
MUTTON Nick#423Junior Male0:17:276:51:00 211 25
REED Helen#455Senior Female0:17:276:51:00 212 12
MURPHY Anthony#43Senior Male0:17:286:51:00 213 143
BYRNE Robyn#396Junior Female0:17:306:52:00 214 10
DE JENG Murray#142Senior Male0:17:316:52:00 215 144
BROWN Matthew#484Junior Male0:17:316:52:00 216 26
HISCOCK Lynne#393Senior Female0:17:316:52:00 217 13
BROWN Darren#89Senior Male0:17:326:53:00 218 145
DAVIES Wayne#181Senior Male0:17:346:53:00 219 146
WILLIAMS Dwayne#488Junior Male0:17:356:54:00 220 27
BROWN Warwick#119Senior Male0:17:376:55:00 221 147
WHITEHOUSE Richard#55Senior Male0:17:376:55:00 222 148
SHERRARD Phillip#80Senior Male0:17:396:55:00 223 149
TANCHEFF Brian#141Senior Male0:17:406:56:00 224 150
WISSENDEN Gary#18Senior Male0:17:426:56:00 225 151
MCNALLY Edward#207Senior Male0:17:436:57:00 226 152
TROJAN Nadia#326Junior Female0:17:436:57:00 227 11
ROSS Travis#133Senior Male0:17:446:57:00 228 153
SHEEDY Peter#74Senior Male0:17:456:58:00 229 154
BERESFORD Jason#65Senior Male0:17:456:58:00 230 155
NICHOLSON Peter#361Over 40 Male0:17:466:58:00 231 24
CHASTON Peter#526Over 40 Male0:17:486:59:00 232 25
FLEISNER Paul#319Over 40 Male0:17:486:59:00 233 26
PEWTRESS Stephen#33Senior Male0:17:517:00:00 234 156
WILLIAMSON John#407Over 40 Male0:17:517:00:00 235 27
REID Karina#352Senior Female0:17:527:00:00 236 14
DIXON Narelle#510Senior Female0:17:527:00:00 237 15
NISH Dennis#367Over 40 Male0:17:537:01:00 238 28
TASSELL Jessica#418Junior Female0:17:547:01:00 239 12
KISS Pam#483Over 40 Female0:17:577:02:00 240 2
THORN Lyndal#475Senior Female0:17:587:03:00 241 16
FETTERPLACE David#405Over 40 Male0:17:597:03:00 242 29
ASHWORTH Danielle#461Senior Female0:18:017:04:00 243 17
CORNWALL Benjamin#477Junior Male0:18:037:05:00 244 28
VLOK Nic#515Over 40 Male0:18:037:05:00 245 30
BROWN Ron#122Senior Male0:18:047:05:00 246 157
DUNN Brad#131Senior Male0:18:057:05:00 247 158
CLINTON Bradley#228Senior Male0:18:057:05:00 248 159
STONE Bradley#146Senior Male0:18:057:05:00 249 160
POTTER Brian#132Senior Male0:18:067:06:00 250 161
LITTLE Nathan#121Senior Male0:18:077:06:00 251 162
FLEMING Graham#85Senior Male0:18:107:07:00 252 163
HEALY Peter#155Senior Male0:18:107:07:00 253 164
WILTSHIRE Simon#362Junior Male0:18:107:07:00 254 29
FALLOON Darren#171Senior Male0:18:117:08:00 255 165
AIKEN Brett#138Senior Male0:18:117:08:00 256 166
ELLIS James#377Junior Male0:18:127:08:00 257 30
VAWDON Margaret#522Over 40 Female0:18:137:09:00 258 3
BANKS Trevor#127Senior Male0:18:167:10:00 259 167
GILLIES Bill#331Over 40 Male0:18:177:10:00 260 31
MANNING Simon#50Senior Male0:18:177:10:00 261 168
PORTCH Deane#13Senior Male0:18:177:10:00 262 169
FISHER Simon#92Senior Male0:18:187:11:00 263 170
UTTING Jane#533Senior Female0:18:197:11:00 264 18
KIDD Ryan#129Senior Male0:18:227:12:00 265 171
JOHNSTON John#211Senior Male0:18:237:13:00 266 172
PAGE Wayne#54Senior Male0:18:247:13:00 267 173
EVANS Bree#491Junior Female0:18:247:13:00 268 13
NICKELS Marc#20Senior Male0:18:267:14:00 269 174
CIRULIS Eril#53Senior Male0:18:267:14:00 270 175
STEPHENS Ron#519Over 40 Male0:18:277:14:00 271 32
CREAN Peter#309Over 40 Male0:18:287:15:00 272 33
FINDLAY Leigh#202Senior Male0:18:317:16:00 273 176
BAXTER Darren#72Senior Male0:18:317:16:00 274 177
MATTHEWS Margaret#465Junior Female0:18:317:16:00 275 14
JOHNSTON Brian#200Senior Male0:18:317:16:00 276 178
OGILVIE Richard#12Senior Male0:18:337:16:00 277 179
GILBERT Ben#437Junior Male0:18:337:16:00 278 31
SMITH Paul#308Over 40 Male0:18:347:17:00 279 34
BEAUMONT Ashley#81Senior Male0:18:357:17:00 280 180
HAMILTON John#363Over 40 Male0:18:357:17:00 281 35
BEOVICH Mark#64Senior Male0:18:357:17:00 282 181
MATTHEWS Robert#339Over 40 Male0:18:367:18:00 283 36
BERTUNA Joseph#162Senior Male0:18:377:18:00 284 182
ELLIOTT Campbell#32Senior Male0:18:397:19:00 285 183
BOURKE Peter#14Senior Male0:18:417:20:00 286 184
BARRY Lawri#493Senior Female0:18:427:20:00 287 19
ROWE Claire#369Senior Female0:18:487:22:00 288 20
BAIRD Justin#157Senior Male0:18:497:23:00 289 185
GREY Mal#110Senior Male0:18:537:24:00 290 186
JOHNSON Celia#316Over 40 Female0:18:567:25:00 291 4
CHURCHILL Trent#42Senior Male0:18:597:27:00 292 187
BEAUMONT Darren#79Senior Male0:19:007:27:00 293 188
NAIRN Joanna#472Senior Female0:19:057:29:00 294 21
ROBERTSON James#103Senior Male0:19:087:30:00 295 189
DICKSON Bradley#154Senior Male0:19:097:31:00 296 190
SKINNER Susan#518Senior Female0:19:107:31:00 297 22
FINCHER Michelle#482Senior Female0:19:127:32:00 298 23
RODGERS Adam#492Junior Male0:19:137:32:00 299 32
FYFIELD Jeanine#388Senior Female0:19:147:33:00 300 24
MARUM Justine#507Junior Female0:19:157:33:00 301 15
ELLIS Michael#378Over 40 Male0:19:167:33:00 302 37
DOOM Kathy#436Senior Female0:19:187:34:00 303 25
PATKIN Sally#450Senior Female0:19:187:34:00 304 26
WIGNALL Alex#213Senior Male0:19:207:35:00 305 191
LENZ Chris#336Over 40 Male0:19:227:36:00 306 38
FRAYNE Jenny#398Senior Female0:19:237:36:00 307 27
TAYLOR Sarah#476Junior Female0:19:247:36:00 308 16
SAUVAGE Kala#397Over 40 Female0:19:277:38:00 309 5
CORNWALL Lisa#478Junior Female0:19:287:38:00 310 17
PATERSON Olivia#443Senior Female0:19:337:40:00 311 28
NICHOLSON Mary#529Over 40 Female0:19:357:41:00 312 6
PIKE Janine#391Over 40 Female0:19:367:41:00 313 7
HOPKINS Barry#439Over 40 Male0:19:377:42:00 314 39
SMITH Kenneth#432Over 40 Male0:19:387:42:00 315 40
GRAY Tony#56Senior Male0:19:407:43:00 316 192
WALKER Anna#516Senior Female0:19:417:43:00 317 29
SEING Justin#197Senior Male0:19:437:44:00 318 193
GREEN Dan#94Senior Male0:19:497:46:00 319 194
FENTON Roy#115Senior Male0:19:507:47:00 320 195
CARTER Sandra#525Junior Female0:19:557:49:00 321 18
HIBBLE Jenny#527Senior Female0:19:577:49:00 322 30
ATKINSON Kim#302Senior Female0:20:037:52:00 323 31
MILLER Lisa Jane#497Senior Female0:20:047:52:00 324 32
WATERSON Kate#442Junior Female0:20:057:53:00 325 19
MOODY Daryl#406Over 40 Male0:20:087:54:00 326 41
STRICKLAND Georgia#471Senior Female0:20:147:56:00 327 33
PETERS Rohan#16Senior Male0:20:187:58:00 328 196
BEAUMONT Brett#70Senior Male0:20:278:01:00 329 197
STEVENS Mark#77Senior Male0:20:288:02:00 330 198
ADES Paul#356Over 40 Male0:20:338:04:00 331 42
FITZSIMON Pauline#495Senior Female0:20:338:04:00 332 34
JONES Vicki#422Senior Female0:20:358:04:00 333 35
CROSBY Paul#107Senior Male0:20:378:05:00 334 199
REID John#458Over 40 Male0:20:398:06:00 335 43
WALKER Christine#365Over 40 Female0:20:408:06:00 336 8
DEVLIN Shane#117Senior Male0:20:408:06:00 337 200
BROOKS Barbera#429Over 40 Female0:20:408:06:00 338 9
FILMER Trevor#382Over 40 Male0:20:418:07:00 339 44
SUNDERLAND Carla#459Senior Female0:20:448:08:00 340 36
HART Paula#467Senior Female0:20:458:08:00 341 37
CHALLINOR Michael#172Senior Male0:20:488:09:00 342 201
DICKSON Karyn#304Senior Female0:20:488:09:00 343 38
REID John#498Over 40 Male0:20:548:12:00 344 45
WILLIAMS Elyssa Mar#460Senior Female0:20:568:13:00 345 39
TREASURE Glen#390Over 40 Male0:21:038:15:00 346 46
ADAMS Murray#444Over 40 Male0:21:048:16:00 347 47
GOULD Susanne#372Senior Female0:21:048:16:00 348 40
MARSH Sarah#311Senior Female0:21:058:16:00 349 41
ESNOUF John#410Over 40 Male0:21:068:16:00 350 48
WEST Trevor#433Over 40 Male0:21:068:16:00 351 49
ANDERSON Samantha#481Senior Female0:21:138:19:00 352 42
STRETTON Sue#357Senior Female0:21:178:21:00 353 43
MORRIS Nicole#315Senior Female0:21:178:21:00 354 44
MARUM Ellyse#506Junior Female0:21:198:22:00 355 20
CASSAR Angela#466Senior Female0:21:208:22:00 356 45
STINEAR Melinda#523Senior Female0:21:218:22:00 357 46
FLENTJE Kate#346Junior Female0:21:228:23:00 358 21
WEBSTER Lisa#402Senior Female0:21:238:23:00 359 47
MC GILLIVRAY Jane#386Senior Female0:21:248:24:00 360 48
LOWE Wendy#385Senior Female0:21:248:24:00 361 49
WORCESTER Greg#26Senior Male0:21:288:25:00 362 202
CLARK Jarrod#179Senior Male0:21:308:26:00 363 203
WILKINSON Debbie#457Senior Female0:21:318:26:00 364 50
DALLINGER Kevin#445Over 40 Male0:21:318:26:00 365 50
PHOTOPOULOS Peter#496Over 40 Male0:21:338:27:00 366 51
BARRY Karina#375Senior Female0:21:348:27:00 367 51
BLOOD Vicki#359Senior Female0:21:348:27:00 368 52
AIKEN Melissa#441Senior Female0:21:358:28:00 369 53
FISHER Joel#190Senior Male0:21:468:32:00 370 204
MASTOS Steve#164Senior Male0:21:498:33:00 371 205
PRENDERGAST Kevin#389Over 40 Male0:21:568:36:00 372 52
BUHAGIAR Matthew#456Junior Male0:21:588:37:00 373 33
SALTER Courtney#514Junior Female0:22:008:38:00 374 22
ZIMMERMAN Kirrily#329Senior Female0:22:018:38:00 375 54
KING Belinda An#463Senior Female0:22:028:38:00 376 55
SYME Michael#387Over 40 Male0:22:068:40:00 377 53
FORD David#517Over 40 Male0:22:128:42:00 378 54
BROWN Trudy#395Senior Female0:22:128:42:00 379 56
CLAREBROUGH Annika#368Senior Female0:22:198:45:00 380 57
BEASLEY Julie#305Senior Female0:22:248:47:00 381 58
DANCE Bronya#364Junior Female0:22:258:47:00 382 23
GEE Ian#47Senior Male0:22:278:48:00 383 206
PATKIN Kate#449Junior Female0:22:278:48:00 384 24
LEDDIN Peter#126Senior Male0:22:308:49:00 385 207
DENNIS Lyn#358Over 40 Female0:22:318:50:00 386 10
SCOTT Cassandra#417Senior Female0:22:338:51:00 387 59
RENTON Douglas#532Over 40 Male0:22:348:51:00 388 55
CARTER Juanita#524Over 40 Female0:22:358:51:00 389 11
ALCOCK Susan#320Senior Female0:22:368:52:00 390 60
HILL Luke#166Senior Male0:22:458:55:00 391 208
CRUSE Matthew#505Junior Male0:22:458:55:00 392 34
BLAKEMORE Elaine#448Senior Female0:22:508:57:00 393 61
RYAN Carmen#447Senior Female0:22:508:57:00 394 62
BROWN Jennifer#520Senior Female0:22:548:59:00 395 63
PLANT Melissa Ja#454Senior Female0:23:049:03:00 396 64
ROUND Belinda#411Senior Female0:23:089:04:00 397 65
SELBY Jason#174Senior Male0:23:119:05:00 398 209
BAIN Jason#159Senior Male0:23:139:06:00 399 210
SARAH Jeff#521Over 40 Male0:23:179:08:00 400 56
HOLLINS Jennifer#384Senior Female0:23:199:09:00 401 66
WILKINSON Daryl#494Over 40 Male0:23:259:11:00 402 57
NELSON Catherine#421Junior Female0:23:359:15:00 403 25
WILLIAMS Lucy#420Junior Female0:23:359:15:00 404 26
KAUCNER Christine#321Senior Female0:23:449:18:00 405 67
STEVENS Kevin#370Over 40 Male0:23:479:20:00 406 58
CAMPBELL Kyra#479Junior Female0:23:489:20:00 407 27
REEK George#453Over 40 Male0:24:089:28:00 408 59
KONTOGOURIS Earlene#328Over 40 Female0:24:429:41:00 409 12
POWELL Dawn#434Senior Female0:24:449:42:00 410 68
KELLY Elissa#504Junior Female0:24:489:44:00 411 28
JONES Lyndo#124Senior Male0:24:569:47:00 412 211
SHINE Stacey Lou#474Senior Female0:24:599:48:00 413 69
WOODWARD Tina#501Senior Female0:25:229:57:00 414 70
MORRE Jean-Claud#313Senior Male0:25:239:57:00 415 212
RITCHIE-JONES Jennifer#500Senior Female0:25:291:00:00 416 71
MUTTON David#424Over 40 Male0:25:3210:01:00 417 60
SESTI Fiona#502Junior Female0:26:1310:17:00 418 29
TOMKINS Phil#91Senior Male0:26:1610:18:00 419 213
SAGE Albert#392Over 40 Male0:26:4410:29:00 420 61
LORIN Caterina#503Junior Female0:26:5810:35:00 421 30
SMIDT Rowan#163Senior Male0:27:2310:44:00 422 214
BEVIL PHILLIPS James#123Senior Male0:27:2410:45:00 423 215
HAMMERSTROM David#125Senior Male0:27:3710:50:00 424 216
WHITEHOUSE Cara#534Junior Female0:27:5010:55:00 425 31
BAILEY Lyn#487Senior Female0:28:0711:02:00 426 72
WEIR Warren#452Over 40 Male0:28:0811:02:00 427 62
WHITEHOUSE Lily#535Senior Female0:28:1511:05:00 428 73
MORLEY Bronwen#360Senior Female0:28:2011:07:00 429 74
DAFF Jan#414Over 40 Female0:28:2911:10:00 430 13
BEWLEY Rikki#327Over 40 Female0:28:3011:11:00 431 14
GRAY Marcelle#530Senior Female0:28:5111:19:00 432 75
BROWN Judy#376Over 40 Female0:29:1411:28:00 433 15
MACKINTOSH Shirley#512Over 40 Female0:29:2511:32:00 434 16
DOERNER Lee#373Over 40 Female0:33:5813:19:00 435 17
TASSELL Lucy#419Senior Female0:00:000:00:00DNF 0